Time;durP1;ratioP1;P1;durP2;ratioP2;P2;SDS_P1;SDS_P2;PMS_P1;PMS_P2;Temp;Humidity;BMP_temperature;BMP_pressure;BME280_temperature;BME280_humidity;BME280_pressure;Samples;Min_cycle;Max_cycle;Signal;HPM_P1;HPM_P2
2022/03/19 00:02:22;;;;;;;19.83;2.97;;;21.20;99.90;;;;;;4916823;29;20232;-69
2022/03/19 00:04:50;;;;;;;18.57;3.60;;;21.30;99.90;;;;;;4917019;29;20326;-70
2022/03/19 00:07:18;;;;;;;14.50;3.03;;;21.30;99.90;;;;;;4915938;29;20656;-70
2022/03/19 00:09:46;;;;;;;10.33;2.37;;;21.20;99.90;;;;;;4917081;29;20272;-70
2022/03/19 00:12:14;;;;;;;17.03;2.70;;;21.30;99.90;;;;;;4915270;29;20232;-70
2022/03/19 00:14:44;;;;;;;12.33;2.90;;;21.60;99.90;;;;;;4915606;29;20787;-70
2022/03/19 00:17:11;;;;;;;13.93;2.87;;;21.70;99.90;;;;;;4917701;29;20195;-69
2022/03/19 00:19:40;;;;;;;13.73;3.13;;;21.60;99.90;;;;;;4916808;29;20233;-70
2022/03/19 00:22:08;;;;;;;8.27;2.43;;;21.70;99.90;;;;;;4917061;29;20256;-69
2022/03/19 00:24:37;;;;;;;16.47;3.17;;;21.60;99.90;;;;;;4916915;29;20188;-69
2022/03/19 00:27:05;;;;;;;9.43;2.20;;;21.30;99.90;;;;;;4919766;29;20545;-69
2022/03/19 00:29:33;;;;;;;6.93;2.40;;;21.10;99.90;;;;;;4920639;29;20208;-69
2022/03/19 00:32:00;;;;;;;8.83;2.17;;;20.80;99.90;;;;;;4920366;29;20229;-69
2022/03/19 00:34:29;;;;;;;12.50;2.73;;;20.60;99.90;;;;;;4920543;29;20176;-69
2022/03/19 00:36:57;;;;;;;12.13;2.67;;;20.60;99.90;;;;;;4920519;29;20194;-69
2022/03/19 00:39:25;;;;;;;12.80;2.93;;;20.70;99.90;;;;;;4920492;29;20658;-69
2022/03/19 00:41:55;;;;;;;15.57;2.40;;;20.80;99.90;;;;;;4920228;29;20188;-70
2022/03/19 00:44:23;;;;;;;9.70;2.50;;;20.80;99.90;;;;;;4924173;29;20182;-70
2022/03/19 00:46:51;;;;;;;10.70;2.40;;;20.90;99.90;;;;;;4920282;29;20281;-68
2022/03/19 00:49:19;;;;;;;8.97;1.97;;;20.90;99.90;;;;;;4920331;29;20181;-68
2022/03/19 00:51:47;;;;;;;4.97;1.60;;;20.70;99.90;;;;;;4919910;29;20270;-68
2022/03/19 00:54:15;;;;;;;7.83;2.43;;;20.10;99.90;;;;;;4920016;29;20535;-69
2022/03/19 00:56:45;;;;;;;11.23;1.77;;;20.30;99.90;;;;;;4919930;29;20212;-68
2022/03/19 00:59:14;;;;;;;8.23;2.00;;;20.40;99.90;;;;;;4920127;29;20266;-69
2022/03/19 01:01:42;;;;;;;5.67;1.90;;;20.40;99.90;;;;;;4918535;29;20321;-68
2022/03/19 01:04:09;;;;;;;9.37;2.63;;;20.50;99.90;;;;;;4919799;29;20182;-69
2022/03/19 01:06:37;;;;;;;11.57;2.50;;;20.60;99.90;;;;;;4919823;29;20192;-69
2022/03/19 01:09:05;;;;;;;7.97;2.13;;;20.60;99.90;;;;;;4918599;29;20185;-69
2022/03/19 01:11:32;;;;;;;6.60;1.90;;;20.70;99.90;;;;;;4919655;29;20277;-69
2022/03/19 01:14:00;;;;;;;11.40;2.23;;;20.80;99.90;;;;;;4919533;29;20264;-70
2022/03/19 01:16:28;;;;;;;7.73;2.30;;;20.70;99.90;;;;;;4917787;29;20271;-70
2022/03/19 01:18:56;;;;;;;5.07;1.73;;;20.90;99.90;;;;;;4919020;29;20190;-69
2022/03/19 01:21:23;;;;;;;6.10;1.60;;;21.10;99.90;;;;;;4918837;29;20302;-70
2022/03/19 01:23:51;;;;;;;9.50;2.17;;;21.00;99.90;;;;;;4919423;29;20698;-69
2022/03/19 01:26:19;;;;;;;9.63;1.90;;;21.10;99.90;;;;;;4918110;29;20186;-68
2022/03/19 01:28:46;;;;;;;13.97;2.20;;;21.20;99.90;;;;;;4914609;29;20236;-70
2022/03/19 01:31:14;;;;;;;12.23;1.93;;;21.20;99.90;;;;;;4899050;29;20218;-69
2022/03/19 01:33:42;;;;;;;5.53;1.43;;;21.60;99.90;;;;;;4898400;29;20589;-69
2022/03/19 01:36:10;;;;;;;6.27;2.23;;;21.70;99.90;;;;;;4900540;29;20256;-69
2022/03/19 01:38:37;;;;;;;8.77;1.97;;;21.80;99.90;;;;;;4916118;29;20264;-69
2022/03/19 01:41:05;;;;;;;4.63;1.60;;;21.80;99.90;;;;;;4916300;29;20186;-69
2022/03/19 01:43:33;;;;;;;10.23;2.03;;;22.00;99.90;;;;;;4916175;29;20176;-69
2022/03/19 01:46:00;;;;;;;7.27;1.70;;;22.00;99.90;;;;;;4915877;29;20189;-68
2022/03/19 01:48:28;;;;;;;11.70;1.90;;;21.80;99.90;;;;;;4916420;29;20216;-69
2022/03/19 01:50:56;;;;;;;8.50;1.63;;;21.70;99.90;;;;;;4917861;29;20214;-69
2022/03/19 01:53:24;;;;;;;9.23;2.03;;;21.70;99.90;;;;;;4917750;29;20199;-68
2022/03/19 01:55:54;;;;;;;10.13;2.17;;;21.80;99.90;;;;;;4917257;29;20205;-69
2022/03/19 01:58:22;;;;;;;9.57;2.03;;;21.80;99.90;;;;;;4917618;29;20710;-69
2022/03/19 02:00:49;;;;;;;10.60;2.00;;;21.60;99.90;;;;;;4917331;29;20228;-68
2022/03/19 02:03:17;;;;;;;10.27;1.67;;;21.80;99.90;;;;;;4917843;29;20185;-68
2022/03/19 02:05:48;;;;;;;10.20;2.27;;;22.30;99.90;;;;;;4917432;29;20223;-68
2022/03/19 02:08:19;;;;;;;9.90;2.23;;;22.40;99.90;;;;;;4917622;29;20237;-69
2022/03/19 02:10:46;;;;;;;5.20;1.90;;;22.90;99.90;;;;;;4917447;29;20244;-69
2022/03/19 02:13:14;;;;;;;9.67;1.83;;;22.90;99.90;;;;;;4917336;29;20192;-68
2022/03/19 02:15:42;;;;;;;6.73;1.70;;;22.80;99.90;;;;;;4917209;29;20185;-68
2022/03/19 02:18:09;;;;;;;12.17;2.20;;;22.90;99.90;;;;;;4917504;29;20185;-69
2022/03/19 02:20:39;;;;;;;9.57;2.00;;;23.40;99.90;;;;;;4917302;29;20216;-69
2022/03/19 02:25:52;;;;;;;9.93;2.13;;;23.30;99.90;;;;;;4916802;29;20252;-69
2022/03/19 02:28:19;;;;;;;7.73;1.83;;;23.40;99.90;;;;;;4917257;29;20263;-68
2022/03/19 02:30:47;;;;;;;10.47;2.63;;;23.30;99.90;;;;;;4917039;29;20216;-69
2022/03/19 02:33:15;;;;;;;10.53;2.63;;;23.50;99.90;;;;;;4915506;29;20200;-69
2022/03/19 02:35:43;;;;;;;11.17;1.90;;;23.50;99.90;;;;;;4917109;29;20178;-69
2022/03/19 02:38:10;;;;;;;10.63;2.50;;;24.10;99.90;;;;;;4916950;29;20189;-69
2022/03/19 02:40:38;;;;;;;21.87;2.90;;;24.30;99.90;;;;;;4916932;29;20181;-69
2022/03/19 02:43:06;;;;;;;8.40;1.90;;;23.90;99.90;;;;;;4917039;29;20213;-69
2022/03/19 02:45:33;;;;;;;14.97;2.70;;;24.20;99.90;;;;;;4917108;29;20659;-69
2022/03/19 02:48:01;;;;;;;11.40;2.50;;;24.10;99.90;;;;;;4916324;29;20177;-69
2022/03/19 02:50:34;;;;;;;15.03;2.90;;;24.10;99.90;;;;;;4916525;29;20276;-69
2022/03/19 02:53:05;;;;;;;12.10;2.60;;;24.10;99.90;;;;;;4916767;29;20260;-70
2022/03/19 02:55:38;;;;;;;14.20;2.80;;;24.60;99.90;;;;;;4917013;29;20181;-69
2022/03/19 02:58:06;;;;;;;8.77;2.73;;;24.40;99.90;;;;;;4915400;29;20627;-69
2022/03/19 03:00:34;;;;;;;9.10;1.83;;;24.00;99.90;;;;;;4916649;29;20201;-69
2022/03/19 03:03:03;;;;;;;9.20;2.03;;;24.00;99.90;;;;;;4916575;29;20189;-69
2022/03/19 03:05:30;;;;;;;10.20;1.83;;;24.20;99.90;;;;;;4916532;29;20242;-69
2022/03/19 03:07:57;;;;;;;10.00;2.13;;;24.50;99.90;;;;;;4916462;29;20197;-70
2022/03/19 03:10:26;;;;;;;10.07;2.50;;;25.30;99.90;;;;;;4916463;29;20278;-68
2022/03/19 03:12:53;;;;;;;8.83;1.70;;;25.70;99.90;;;;;;4916293;29;20193;-70
2022/03/19 03:15:21;;;;;;;10.73;2.43;;;25.00;99.90;;;;;;4916455;29;20185;-69
2022/03/19 03:17:48;;;;;;;13.20;2.53;;;24.60;99.90;;;;;;4916840;29;20185;-68
2022/03/19 03:20:15;;;;;;;12.40;2.30;;;23.90;99.90;;;;;;4916515;29;20178;-69
2022/03/19 03:22:44;;;;;;;10.00;2.17;;;23.70;99.90;;;;;;4916311;29;20193;-69
2022/03/19 03:25:11;;;;;;;12.23;2.73;;;23.80;99.90;;;;;;4916206;29;20189;-68
2022/03/19 03:27:39;;;;;;;11.87;2.60;;;23.60;99.90;;;;;;4916152;29;20197;-69
2022/03/19 03:30:07;;;;;;;15.47;3.60;;;23.50;99.90;;;;;;4916199;29;20177;-69
2022/03/19 03:32:34;;;;;;;14.10;2.40;;;23.80;99.90;;;;;;4914719;29;20697;-70
2022/03/19 03:35:02;;;;;;;16.40;3.07;;;23.80;99.90;;;;;;4916200;29;20192;-69
2022/03/19 03:37:29;;;;;;;14.70;2.80;;;24.00;99.90;;;;;;4916093;29;20220;-70
2022/03/19 03:39:57;;;;;;;12.90;3.00;;;24.30;99.90;;;;;;4916218;29;20653;-69
2022/03/19 03:42:25;;;;;;;16.10;3.70;;;24.80;99.90;;;;;;4916403;29;20195;-70
2022/03/19 03:44:57;;;;;;;14.47;3.43;;;25.00;99.90;;;;;;4915387;29;20595;-70
2022/03/19 03:47:28;;;;;;;14.53;3.23;;;25.00;99.90;;;;;;4916058;29;20185;-69
2022/03/19 03:49:56;;;;;;;9.93;2.43;;;26.00;99.90;;;;;;4915755;29;20192;-70
2022/03/19 03:52:23;;;;;;;15.17;3.17;;;25.90;99.90;;;;;;4914328;29;20272;-70
2022/03/19 03:54:51;;;;;;;15.40;2.97;;;25.50;99.90;;;;;;4915490;29;20181;-69
2022/03/19 03:57:18;;;;;;;18.07;2.70;;;25.20;99.90;;;;;;4915379;29;20211;-71
2022/03/19 03:59:46;;;;;;;11.00;2.10;;;25.30;99.90;;;;;;4915366;29;20233;-70
2022/03/19 04:02:14;;;;;;;8.30;2.00;;;25.30;99.90;;;;;;4915406;29;20236;-70
2022/03/19 04:04:41;;;;;;;12.13;2.67;;;25.60;99.90;;;;;;4914113;29;20257;-69
2022/03/19 04:07:08;;;;;;;9.83;2.50;;;26.00;99.90;;;;;;4915725;29;20189;-69
2022/03/19 04:09:36;;;;;;;10.73;2.77;;;26.10;99.90;;;;;;4915701;29;20177;-69
2022/03/19 04:12:03;;;;;;;16.43;2.83;;;26.30;99.90;;;;;;4915609;29;20308;-69
2022/03/19 04:14:31;;;;;;;13.60;2.37;;;25.90;99.90;;;;;;4915386;29;20236;-69
2022/03/19 04:16:59;;;;;;;12.37;2.47;;;25.90;99.90;;;;;;4915499;29;20189;-68
2022/03/19 04:19:26;;;;;;;11.00;2.57;;;25.90;99.90;;;;;;4915779;29;20185;-70
2022/03/19 04:21:53;;;;;;;10.37;2.70;;;25.50;99.90;;;;;;4915725;29;20182;-69
2022/03/19 04:24:21;;;;;;;10.60;2.43;;;25.40;99.90;;;;;;4915550;29;20182;-68
2022/03/19 04:26:48;;;;;;;19.20;3.30;;;25.40;99.90;;;;;;4915225;29;20548;-69
2022/03/19 04:29:15;;;;;;;16.50;2.70;;;25.40;99.90;;;;;;4915488;29;20209;-69
2022/03/19 04:31:43;;;;;;;14.07;2.40;;;25.70;99.90;;;;;;4915506;29;20225;-70
2022/03/19 04:34:10;;;;;;;14.53;2.70;;;25.50;99.90;;;;;;4915462;29;20177;-69
2022/03/19 04:36:37;;;;;;;14.40;2.67;;;25.50;99.90;;;;;;4915113;29;20185;-69
2022/03/19 04:39:07;;;;;;;11.70;2.63;;;25.30;99.90;;;;;;4914164;29;20181;-69
2022/03/19 04:41:35;;;;;;;11.60;2.37;;;25.20;99.90;;;;;;4915317;29;20193;-70
2022/03/19 04:44:04;;;;;;;11.37;2.90;;;25.30;99.90;;;;;;4915332;29;20228;-69
2022/03/19 04:46:32;;;;;;;11.67;2.40;;;25.50;99.90;;;;;;4915140;29;20201;-69
2022/03/19 04:48:59;;;;;;;19.87;3.33;;;25.60;99.90;;;;;;4915374;29;20557;-70
2022/03/19 04:51:34;;;;;;;12.50;2.90;;;25.20;99.90;;;;;;4916191;29;20209;-71
2022/03/19 04:54:02;;;;;;;14.27;3.03;;;25.20;99.90;;;;;;4915403;29;20177;-69
2022/03/19 04:56:30;;;;;;;14.30;2.70;;;25.10;99.90;;;;;;4915255;29;20196;-70
2022/03/19 04:58:59;;;;;;;19.90;2.77;;;25.40;99.90;;;;;;4915204;29;20717;-68
2022/03/19 05:01:31;;;;;;;13.80;2.70;;;25.50;99.90;;;;;;4915110;29;20716;-68
2022/03/19 05:04:04;;;;;;;10.77;2.57;;;25.20;99.90;;;;;;4915371;29;20184;-68
2022/03/19 05:06:32;;;;;;;14.40;2.77;;;25.10;99.90;;;;;;4913383;29;20201;-70
2022/03/19 05:11:44;;;;;;;12.90;2.63;;;24.80;99.90;;;;;;4897480;29;20277;-68
2022/03/19 05:14:12;;;;;;;14.93;2.23;;;24.30;99.90;;;;;;4899772;29;20210;-68
2022/03/19 05:16:39;;;;;;;15.97;2.50;;;24.50;99.90;;;;;;4899588;29;20196;-68
2022/03/19 05:19:06;;;;;;;16.37;3.70;;;24.50;99.90;;;;;;4899792;29;20177;-68
2022/03/19 05:21:35;;;;;;;10.57;2.00;;;24.30;99.90;;;;;;4900976;29;20245;-68
2022/03/19 05:24:02;;;;;;;9.80;2.77;;;24.10;99.90;;;;;;4918195;29;20545;-68
2022/03/19 05:26:29;;;;;;;12.37;2.97;;;24.00;99.90;;;;;;4918511;29;20184;-69
2022/03/19 05:28:57;;;;;;;16.47;3.17;;;23.90;99.90;;;;;;4918360;29;20204;-68
2022/03/19 05:31:25;;;;;;;11.37;2.33;;;24.20;99.90;;;;;;4918161;29;20237;-69
2022/03/19 05:36:39;;;;;;;15.20;2.83;;;24.10;99.90;;;;;;4899411;29;20732;-70
2022/03/19 05:39:06;;;;;;;11.33;2.60;;;23.60;99.90;;;;;;4912589;29;20189;-69
2022/03/19 05:41:34;;;;;;;14.13;2.97;;;23.40;99.90;;;;;;4918824;29;20193;-70
2022/03/19 05:44:01;;;;;;;15.67;2.63;;;23.50;99.90;;;;;;4917996;29;20188;-69
2022/03/19 05:46:30;;;;;;;14.77;2.87;;;23.60;99.90;;;;;;4918055;29;20200;-69
2022/03/19 05:48:58;;;;;;;13.77;3.03;;;24.00;99.90;;;;;;4918392;29;20194;-70
2022/03/19 05:51:25;;;;;;;11.13;2.73;;;23.90;99.90;;;;;;4917896;29;20235;-69
2022/03/19 05:53:52;;;;;;;11.80;2.43;;;23.80;99.90;;;;;;4917733;29;20651;-67
2022/03/19 05:56:20;;;;;;;9.50;2.13;;;24.00;99.90;;;;;;4917682;29;20259;-69
2022/03/19 05:58:47;;;;;;;10.67;2.57;;;24.20;99.90;;;;;;4917313;29;20181;-67
2022/03/19 06:01:15;;;;;;;12.40;2.53;;;24.00;99.90;;;;;;4917652;29;20713;-67
2022/03/19 06:03:42;;;;;;;10.57;2.57;;;23.80;99.90;;;;;;4917826;29;20689;-68
2022/03/19 06:06:10;;;;;;;13.73;2.50;;;24.00;99.90;;;;;;4917569;29;20190;-67
2022/03/19 06:08:37;;;;;;;9.33;2.73;;;24.20;99.90;;;;;;4916245;29;20190;-67
2022/03/19 06:11:05;;;;;;;17.87;3.43;;;24.30;99.90;;;;;;4898705;29;20304;-67
2022/03/19 06:13:32;;;;;;;12.50;3.17;;;24.60;99.90;;;;;;4898525;29;20265;-67
2022/03/19 06:15:59;;;;;;;13.60;3.00;;;24.90;99.90;;;;;;4915273;29;20234;-67
2022/03/19 06:18:27;;;;;;;14.13;3.23;;;24.80;99.90;;;;;;4917514;29;20252;-68
2022/03/19 06:20:56;;;;;;;14.83;2.87;;;24.70;99.90;;;;;;4917062;29;20739;-67
2022/03/19 06:23:24;;;;;;;15.17;3.10;;;24.80;99.90;;;;;;4916494;29;20201;-67
2022/03/19 06:25:52;;;;;;;17.20;3.20;;;24.90;99.90;;;;;;4917188;29;20190;-68
2022/03/19 06:28:20;;;;;;;12.17;2.70;;;25.00;99.90;;;;;;4917253;29;20220;-68
2022/03/19 06:30:48;;;;;;;21.10;3.23;;;24.80;99.90;;;;;;4916645;29;20189;-68
2022/03/19 06:33:15;;;;;;;16.67;3.07;;;24.70;99.90;;;;;;4917233;29;20217;-68
2022/03/19 06:38:30;;;;;;;18.67;3.20;;;24.40;99.90;;;;;;4917196;29;20278;-68
2022/03/19 06:40:59;;;;;;;13.63;2.53;;;24.40;99.90;;;;;;4916910;29;20193;-68
2022/03/19 06:43:27;;;;;;;19.87;3.30;;;24.10;99.90;;;;;;4916885;29;20192;-68
2022/03/19 06:45:58;;;;;;;15.53;2.93;;;24.40;99.90;;;;;;4916942;29;20343;-66
2022/03/19 06:48:28;;;;;;;17.67;2.80;;;24.10;99.90;;;;;;4915773;29;20189;-67
2022/03/19 06:50:56;;;;;;;19.40;3.10;;;24.10;99.90;;;;;;4917184;29;20224;-68
2022/03/19 06:53:25;;;;;;;12.37;2.87;;;24.10;99.90;;;;;;4916815;29;20188;-68
2022/03/19 06:55:53;;;;;;;16.60;3.00;;;23.40;99.90;;;;;;4916820;29;20185;-68
2022/03/19 06:58:21;;;;;;;16.70;3.17;;;23.20;99.90;;;;;;4916356;29;20224;-68
2022/03/19 07:00:49;;;;;;;17.83;3.30;;;23.00;99.90;;;;;;4915934;29;20627;-68
2022/03/19 07:03:16;;;;;;;19.03;3.33;;;22.70;99.90;;;;;;4916768;29;20497;-69
2022/03/19 07:05:44;;;;;;;17.50;2.90;;;22.50;99.90;;;;;;4916545;29;20189;-68
2022/03/19 07:08:11;;;;;;;17.03;3.63;;;22.50;99.90;;;;;;4916408;29;20278;-68
2022/03/19 07:10:38;;;;;;;18.83;3.43;;;22.70;99.90;;;;;;4916157;29;20274;-68
2022/03/19 07:13:06;;;;;;;17.17;3.37;;;23.20;99.90;;;;;;4916228;29;20272;-68
2022/03/19 07:15:35;;;;;;;16.37;2.93;;;23.30;99.90;;;;;;4916460;29;20189;-68
2022/03/19 07:18:02;;;;;;;16.63;4.07;;;23.20;99.90;;;;;;4916064;29;20189;-67
2022/03/19 07:20:33;;;;;;;18.20;3.00;;;23.00;99.90;;;;;;4916136;29;20196;-68
2022/03/19 07:23:06;;;;;;;16.53;3.37;;;22.70;99.90;;;;;;4916232;29;20197;-68
2022/03/19 07:25:41;;;;;;;20.30;3.20;;;22.60;99.90;;;;;;4916250;29;20906;-68
2022/03/19 07:28:11;;;;;;;14.87;2.93;;;22.40;99.90;;;;;;4916075;29;20204;-68
2022/03/19 07:30:39;;;;;;;13.47;3.53;;;22.30;99.90;;;;;;4916029;29;20210;-68
2022/03/19 07:33:07;;;;;;;19.77;3.30;;;22.10;99.90;;;;;;4915765;29;20193;-69
2022/03/19 07:35:34;;;;;;;13.47;2.87;;;21.90;99.90;;;;;;4915961;29;20187;-68
2022/03/19 07:38:02;;;;;;;13.00;2.67;;;21.70;99.90;;;;;;4916005;29;20198;-68
2022/03/19 07:43:15;;;;;;;14.57;2.70;;;21.50;99.90;;;;;;4916138;29;20280;-69
2022/03/19 07:45:43;;;;;;;16.10;3.83;;;21.30;99.90;;;;;;4916075;29;20188;-69
2022/03/19 07:48:11;;;;;;;16.43;3.00;;;21.30;99.90;;;;;;4915943;29;20184;-70
2022/03/19 07:50:40;;;;;;;13.77;3.93;;;21.30;99.90;;;;;;4915776;29;20180;-69
2022/03/19 07:53:08;;;;;;;19.67;3.93;;;21.20;99.90;;;;;;4915453;29;20193;-68
2022/03/19 07:55:35;;;;;;;21.23;4.47;;;21.20;99.90;;;;;;4916101;29;20206;-69
2022/03/19 07:58:05;;;;;;;16.67;3.47;;;21.00;99.90;;;;;;4914355;29;20200;-70
2022/03/19 08:00:33;;;;;;;18.83;2.83;;;21.00;99.90;;;;;;4915619;29;20623;-69
2022/03/19 08:03:00;;;;;;;17.93;2.67;;;20.90;99.90;;;;;;4915839;29;20335;-69
2022/03/19 08:05:27;;;;;;;11.27;2.83;;;20.80;99.90;;;;;;4915916;29;20184;-69
2022/03/19 08:07:55;;;;;;;21.07;2.93;;;20.80;99.90;;;;;;4915881;29;20174;-70
2022/03/19 08:10:24;;;;;;;16.50;2.73;;;20.70;99.90;;;;;;4915397;29;20192;-70
2022/03/19 08:12:58;;;;;;;14.53;3.27;;;20.60;99.90;;;;;;4915229;29;20219;-70
2022/03/19 08:15:25;;;;;;;15.20;2.97;;;20.60;99.90;;;;;;4915858;29;20218;-69
2022/03/19 08:17:52;;;;;;;13.93;2.80;;;20.60;99.90;;;;;;4915751;29;20184;-69
2022/03/19 08:20:20;;;;;;;21.57;3.30;;;20.40;99.90;;;;;;4915734;29;20372;-67
2022/03/19 08:22:47;;;;;;;18.63;3.00;;;20.40;99.90;;;;;;4914798;29;20194;-68
2022/03/19 08:25:15;;;;;;;13.63;2.77;;;20.40;99.90;;;;;;4915635;29;20207;-69
2022/03/19 08:27:42;;;;;;;16.13;2.80;;;20.30;99.90;;;;;;4915497;29;20646;-68
2022/03/19 08:30:09;;;;;;;12.17;2.93;;;20.30;99.90;;;;;;4915587;29;20557;-67
2022/03/19 08:32:37;;;;;;;19.23;3.60;;;20.20;99.90;;;;;;4915144;29;20252;-67
2022/03/19 08:35:04;;;;;;;14.83;3.73;;;20.20;99.90;;;;;;4915573;29;20190;-68
2022/03/19 08:37:32;;;;;;;11.70;3.30;;;20.20;99.90;;;;;;4915620;29;20220;-67
2022/03/19 08:40:21;;;;;;;20.77;3.40;;;20.10;99.90;;;;;;4915554;29;20185;-69
2022/03/19 08:42:53;;;;;;;14.73;3.53;;;20.10;99.90;;;;;;4913572;29;20190;-68
2022/03/19 08:45:22;;;;;;;23.30;3.13;;;20.10;99.90;;;;;;4915607;29;20326;-70
2022/03/19 08:47:49;;;;;;;21.87;3.00;;;20.00;99.90;;;;;;4918252;29;20190;-69
2022/03/19 08:50:17;;;;;;;16.77;3.63;;;19.90;99.90;;;;;;4917395;29;20221;-69
2022/03/19 08:52:44;;;;;;;23.20;3.43;;;19.90;99.90;;;;;;4919015;29;20273;-67
2022/03/19 08:55:12;;;;;;;17.67;3.83;;;19.90;99.90;;;;;;4919017;29;20205;-69
2022/03/19 08:57:39;;;;;;;16.30;3.43;;;19.90;99.90;;;;;;4919064;29;20237;-69
2022/03/19 09:00:08;;;;;;;19.67;3.07;;;19.80;99.90;;;;;;4918396;29;20215;-68
2022/03/19 09:02:35;;;;;;;11.70;2.80;;;19.80;99.90;;;;;;4918128;29;20300;-68
2022/03/19 09:05:03;;;;;;;13.30;3.47;;;19.70;99.90;;;;;;4918432;29;20281;-68
2022/03/19 09:07:31;;;;;;;21.13;3.40;;;19.70;99.90;;;;;;4918822;29;20260;-70
2022/03/19 09:09:58;;;;;;;15.53;3.17;;;19.70;99.90;;;;;;4918824;29;20188;-69
2022/03/19 09:12:26;;;;;;;14.57;3.00;;;19.70;99.90;;;;;;4918579;29;20273;-68
2022/03/19 09:14:54;;;;;;;10.40;2.60;;;19.60;99.90;;;;;;4918602;29;20269;-69
2022/03/19 09:17:21;;;;;;;23.23;3.27;;;19.60;99.90;;;;;;4919105;29;20217;-71
2022/03/19 09:19:49;;;;;;;18.43;3.63;;;19.60;99.90;;;;;;4918353;29;20196;-69
2022/03/19 09:22:16;;;;;;;15.77;3.57;;;19.60;99.90;;;;;;4918512;29;20178;-68
2022/03/19 09:24:43;;;;;;;17.60;2.97;;;19.60;99.90;;;;;;4917421;29;20192;-69
2022/03/19 09:27:11;;;;;;;19.40;4.73;;;19.50;99.90;;;;;;4918482;29;20213;-69
2022/03/19 09:29:39;;;;;;;15.20;3.33;;;19.40;99.90;;;;;;4916752;29;20194;-68
2022/03/19 09:32:06;;;;;;;13.17;3.50;;;19.30;99.90;;;;;;4918261;29;20213;-69
2022/03/19 09:34:34;;;;;;;16.20;3.30;;;19.40;99.90;;;;;;4918475;29;20185;-68
2022/03/19 09:37:01;;;;;;;13.83;2.97;;;19.40;99.90;;;;;;4916949;29;20745;-69
2022/03/19 09:39:28;;;;;;;19.17;3.63;;;19.30;99.90;;;;;;4917698;29;20221;-69
2022/03/19 09:41:56;;;;;;;15.53;3.10;;;19.30;99.90;;;;;;4918247;29;20245;-69
2022/03/19 09:44:27;;;;;;;14.43;3.37;;;19.20;99.90;;;;;;4918693;29;20187;-68
2022/03/19 09:46:54;;;;;;;17.30;4.10;;;19.20;99.90;;;;;;4916797;29;20595;-68
2022/03/19 09:49:22;;;;;;;16.87;3.93;;;19.20;99.90;;;;;;4917771;29;20193;-69
2022/03/19 09:51:56;;;;;;;15.00;3.17;;;19.20;99.90;;;;;;4918199;29;20228;-69
2022/03/19 09:54:24;;;;;;;13.83;3.13;;;19.10;99.90;;;;;;4918089;29;20193;-69
2022/03/19 09:56:52;;;;;;;14.30;3.80;;;19.00;99.90;;;;;;4917495;29;20209;-68
2022/03/19 09:59:24;;;;;;;20.13;3.80;;;18.90;99.90;;;;;;4917715;29;20192;-68
2022/03/19 10:01:52;;;;;;;19.57;3.37;;;18.90;99.90;;;;;;4917638;29;20237;-69
2022/03/19 10:04:20;;;;;;;13.87;3.40;;;18.80;99.90;;;;;;4917306;29;20185;-67
2022/03/19 10:09:48;;;;;;;15.23;3.57;;;18.70;99.90;;;;;;4917928;29;20671;-68
2022/03/19 10:12:30;;;;;;;14.97;3.87;;;18.70;99.90;;;;;;4917534;29;20213;-68
2022/03/19 10:14:59;;;;;;;17.80;3.30;;;18.70;99.90;;;;;;4918119;29;20186;-68
2022/03/19 10:17:34;;;;;;;14.47;4.43;;;18.80;99.90;;;;;;4917576;29;20654;-68
2022/03/19 10:20:25;;;;;;;18.53;3.47;;;18.90;99.90;;;;;;4917352;29;20652;-69
2022/03/19 10:23:00;;;;;;;14.33;3.30;;;18.90;99.90;;;;;;4918182;29;20666;-69
2022/03/19 10:25:27;;;;;;;16.00;3.57;;;19.00;99.90;;;;;;4918007;29;20219;-68
2022/03/19 10:28:04;;;;;;;17.87;2.90;;;19.00;99.90;;;;;;4917699;29;20186;-68
2022/03/19 10:30:41;;;;;;;22.90;5.10;;;19.00;99.90;;;;;;4917433;29;20200;-66
2022/03/19 10:33:11;;;;;;;13.90;3.43;;;18.90;99.90;;;;;;4918784;29;20193;-67
2022/03/19 10:35:41;;;;;;;13.97;3.47;;;19.00;99.90;;;;;;4921577;29;20758;-68
2022/03/19 10:38:23;;;;;;;17.47;3.40;;;19.00;99.90;;;;;;4920180;29;20214;-67
2022/03/19 10:40:53;;;;;;;16.30;3.27;;;18.90;99.90;;;;;;4921080;29;20200;-67
2022/03/19 10:43:23;;;;;;;16.43;3.43;;;18.90;99.90;;;;;;4921154;29;20785;-68
2022/03/19 10:45:53;;;;;;;14.77;2.97;;;18.80;99.90;;;;;;4920294;29;20177;-68
2022/03/19 10:48:23;;;;;;;13.10;2.77;;;18.80;99.90;;;;;;4917388;29;20192;-67
2022/03/19 10:50:51;;;;;;;11.37;3.07;;;18.60;99.90;;;;;;4916336;29;20554;-67
2022/03/19 10:53:20;;;;;;;11.30;3.83;;;18.60;99.90;;;;;;4916949;29;20182;-69
2022/03/19 10:55:49;;;;;;;11.80;2.73;;;18.60;99.90;;;;;;4916539;29;20220;-68
2022/03/19 10:58:17;;;;;;;10.73;3.10;;;18.60;99.90;;;;;;4915403;29;20609;-68
2022/03/19 11:00:50;;;;;;;16.93;4.00;;;18.60;99.90;;;;;;4916499;29;20177;-68
2022/03/19 11:03:29;;;;;;;12.90;3.33;;;18.50;99.90;;;;;;4916826;29;20236;-68
2022/03/19 11:06:19;;;;;;;19.53;3.10;;;18.40;99.90;;;;;;4897842;29;20185;-68
2022/03/19 11:08:48;;;;;;;18.27;3.50;;;18.40;99.90;;;;;;4898939;29;20189;-68
2022/03/19 11:11:18;;;;;;;13.60;3.00;;;18.40;99.90;;;;;;4916174;29;20213;-68
2022/03/19 11:13:50;;;;;;;12.80;3.07;;;18.40;99.90;;;;;;4917207;29;20177;-68
2022/03/19 11:16:21;;;;;;;15.23;2.97;;;18.40;99.90;;;;;;4915490;29;20192;-67
2022/03/19 11:18:52;;;;;;;16.43;2.87;;;18.30;99.90;;;;;;4915249;29;20643;-67
2022/03/19 11:21:21;;;;;;;12.90;3.30;;;18.30;99.90;;;;;;4916576;29;20544;-67
2022/03/19 11:23:55;;;;;;;16.30;3.23;;;18.30;99.90;;;;;;4916406;29;20584;-66
2022/03/19 11:26:26;;;;;;;15.33;3.17;;;18.20;99.90;;;;;;4916330;29;20181;-67
2022/03/19 11:28:55;;;;;;;11.30;2.57;;;18.10;99.90;;;;;;4915722;29;20188;-67
2022/03/19 11:31:32;;;;;;;18.20;3.07;;;18.10;99.90;;;;;;4916646;29;20224;-69
2022/03/19 11:34:26;;;;;;;11.17;2.87;;;18.00;99.90;;;;;;4916327;29;20531;-67
2022/03/19 11:37:02;;;;;;;11.23;3.10;;;17.90;99.90;;;;;;4913087;29;20199;-67
2022/03/19 11:39:29;;;;;;;13.60;3.30;;;17.80;99.90;;;;;;4916040;29;20188;-67
2022/03/19 11:41:57;;;;;;;14.87;2.80;;;17.80;99.90;;;;;;4913375;29;20279;-68
2022/03/19 11:44:28;;;;;;;13.43;2.93;;;17.70;99.90;;;;;;4915543;29;20276;-67
2022/03/19 11:46:58;;;;;;;18.20;3.03;;;17.70;99.90;;;;;;4913219;29;20300;-67
2022/03/19 11:49:43;;;;;;;14.47;3.87;;;17.70;99.90;;;;;;4915387;29;20196;-66
2022/03/19 11:52:11;;;;;;;16.73;3.00;;;17.60;99.90;;;;;;4915872;29;20220;-66
2022/03/19 11:55:05;;;;;;;14.40;3.03;;;17.50;99.90;;;;;;4915793;29;20563;-67
2022/03/19 11:57:50;;;;;;;11.80;2.43;;;17.50;99.90;;;;;;4915328;29;20219;-67
2022/03/19 12:00:26;;;;;;;17.30;3.07;;;17.40;99.90;;;;;;4915738;29;20650;-67
2022/03/19 12:03:24;;;;;;;12.13;2.97;;;17.20;99.90;;;;;;4915196;29;20284;-66
2022/03/19 12:05:52;;;;;;;10.30;3.13;;;17.10;99.90;;;;;;4915201;29;20221;-67
2022/03/19 12:08:23;;;;;;;11.53;2.47;;;17.00;99.90;;;;;;4915138;29;20275;-67
2022/03/19 12:11:14;;;;;;;9.33;2.50;;;16.90;99.90;;;;;;4914616;29;20201;-67
2022/03/19 12:13:47;;;;;;;15.93;3.47;;;16.90;99.90;;;;;;4914274;29;20189;-67
2022/03/19 12:16:44;;;;;;;8.37;2.40;;;16.80;99.90;;;;;;4914672;29;20181;-67
2022/03/19 12:19:12;;;;;;;14.50;3.60;;;16.70;99.90;;;;;;4915119;29;20184;-66
2022/03/19 12:21:45;;;;;;;17.13;3.73;;;16.60;99.90;;;;;;4916038;29;20178;-68
2022/03/19 12:24:33;;;;;;;16.63;3.73;;;16.60;99.90;;;;;;4918132;29;20177;-68
2022/03/19 12:27:00;;;;;;;13.80;3.30;;;16.50;99.90;;;;;;4918235;29;20192;-68
2022/03/19 12:29:32;;;;;;;13.10;3.90;;;16.50;99.90;;;;;;4918288;29;20235;-68
2022/03/19 12:32:00;;;;;;;11.60;3.47;;;16.40;99.90;;;;;;4917595;29;20750;-68
2022/03/19 12:34:30;;;;;;;15.03;3.67;;;16.40;99.90;;;;;;4918155;29;20196;-69
2022/03/19 12:37:04;;;;;;;14.50;4.03;;;16.40;99.90;;;;;;4918134;29;20185;-69
2022/03/19 12:39:32;;;;;;;10.40;3.47;;;16.40;99.90;;;;;;4918061;29;20705;-69
2022/03/19 12:42:00;;;;;;;9.60;2.70;;;16.30;99.90;;;;;;4918107;29;20664;-69
2022/03/19 12:44:29;;;;;;;21.77;3.50;;;16.30;99.90;;;;;;4917857;29;20200;-68
2022/03/19 12:47:07;;;;;;;10.47;3.40;;;16.20;99.90;;;;;;4917918;29;20551;-68
2022/03/19 12:49:34;;;;;;;14.73;3.63;;;16.20;99.90;;;;;;4918103;29;20232;-68
2022/03/19 12:52:09;;;;;;;14.00;3.10;;;16.20;99.90;;;;;;4917788;29;20556;-68
2022/03/19 12:54:43;;;;;;;9.10;3.03;;;16.20;99.90;;;;;;4916725;29;20191;-70
2022/03/19 12:57:13;;;;;;;10.33;3.73;;;16.30;99.90;;;;;;4916980;29;20185;-69
2022/03/19 12:59:54;;;;;;;17.93;4.03;;;16.30;99.90;;;;;;4918650;29;20560;-69
2022/03/19 13:02:25;;;;;;;14.80;3.73;;;16.30;99.90;;;;;;4793353;29;3717044;-68
2022/03/19 13:04:53;;;;;;;10.00;3.53;;;16.40;99.90;;;;;;4919702;29;20237;-71
2022/03/19 13:07:24;;;;;;;13.20;3.20;;;16.40;99.90;;;;;;4919653;29;20189;-67